createdAt,value
2017-10-26T00:01:07.746Z,1016.74
2017-10-26T00:02:20.028Z,1016.71
2017-10-26T00:03:32.624Z,1016.7
2017-10-26T00:04:44.908Z,1016.76
2017-10-26T00:05:57.798Z,1016.77
2017-10-26T00:07:10.407Z,1016.73
2017-10-26T00:08:23.032Z,1016.65
2017-10-26T00:09:35.326Z,1016.67
2017-10-26T00:10:47.625Z,1016.75
2017-10-26T00:11:59.915Z,1016.77
2017-10-26T00:13:12.198Z,1016.79
2017-10-26T00:14:24.781Z,1016.77
2017-10-26T00:15:36.781Z,1016.92
2017-10-26T00:16:49.382Z,1017.03
2017-10-26T00:18:01.981Z,1017.08
2017-10-26T00:19:14.579Z,1017.1
2017-10-26T00:20:27.213Z,1017.02
2017-10-26T00:21:39.493Z,1016.86
2017-10-26T00:22:51.805Z,1016.85
2017-10-26T00:24:04.085Z,1016.93
2017-10-26T00:25:16.676Z,1016.98
2017-10-26T00:26:29.248Z,1016.95
2017-10-26T00:27:42.123Z,1016.93
2017-10-26T00:28:54.760Z,1016.83
2017-10-26T00:30:07.356Z,1016.85
2017-10-26T00:31:19.977Z,1016.85
2017-10-26T00:32:32.602Z,1016.9
2017-10-26T00:33:44.576Z,1016.82
2017-10-26T00:34:56.870Z,1016.99
2017-10-26T00:36:09.485Z,1017.03
2017-10-26T00:37:21.785Z,1017.07
2017-10-26T00:38:34.706Z,1017.08
2017-10-26T00:39:47.019Z,1017.12
2017-10-26T00:40:58.964Z,1017.15
2017-10-26T00:42:10.594Z,1017.16
2017-10-26T00:43:23.192Z,1017.17
2017-10-26T00:44:35.809Z,1017.13
2017-10-26T00:45:48.078Z,1017.16
2017-10-26T00:47:00.704Z,1017.16
2017-10-26T00:48:13.320Z,1017.2
2017-10-26T00:49:25.942Z,1017.21
2017-10-26T00:50:38.555Z,1017.09
2017-10-26T00:51:50.834Z,1017.11
2017-10-26T00:53:03.466Z,1017.12
2017-10-26T00:54:16.090Z,1017.16
2017-10-26T00:55:28.708Z,1017.18
2017-10-26T00:56:40.681Z,1017.17
2017-10-26T00:57:52.685Z,1017.15
2017-10-26T00:59:04.983Z,1017.18
2017-10-26T01:00:17.282Z,1017.18
2017-10-26T01:01:29.248Z,1017.2
2017-10-26T01:02:41.885Z,1017.15
2017-10-26T01:03:54.492Z,1017.08
2017-10-26T01:05:07.106Z,1017.01
2017-10-26T01:06:19.702Z,1016.94
2017-10-26T01:07:32.319Z,1016.88
2017-10-26T01:08:44.949Z,1016.92
2017-10-26T01:09:57.566Z,1016.98
2017-10-26T01:11:10.135Z,1017.01
2017-10-26T01:12:22.751Z,1017.04
2017-10-26T01:13:35.377Z,1017.12
2017-10-26T01:14:48.000Z,1017.11
2017-10-26T01:16:00.594Z,1017.11
2017-10-26T01:17:12.884Z,1017.11
2017-10-26T01:18:25.486Z,1017.13
2017-10-26T01:19:38.087Z,1017.19
2017-10-26T01:20:50.403Z,1017.19
2017-10-26T01:22:03.024Z,1017.2
2017-10-26T01:23:15.683Z,1017.21
2017-10-26T01:24:27.973Z,1017.17
2017-10-26T01:25:40.606Z,1017.18
2017-10-26T01:26:52.878Z,1017.11
2017-10-26T01:28:04.527Z,1017.18
2017-10-26T01:29:17.148Z,1017.19
2017-10-26T01:30:29.768Z,1017.17
2017-10-26T01:31:42.361Z,1017.21
2017-10-26T01:32:54.983Z,1017.24
2017-10-26T01:34:07.298Z,1017.21
2017-10-26T01:35:19.902Z,1017.14
2017-10-26T01:36:32.521Z,1017.14
2017-10-26T01:37:45.134Z,1017.1
2017-10-26T01:38:57.449Z,1017.11
2017-10-26T01:40:09.755Z,1017.1
2017-10-26T01:41:22.405Z,1017.07
2017-10-26T01:42:35.050Z,1017.12
2017-10-26T01:43:47.695Z,1017.16
2017-10-26T01:45:00.313Z,1017.15
2017-10-26T01:46:12.925Z,1017.11
2017-10-26T01:47:25.549Z,1017.12
2017-10-26T01:48:38.130Z,1017.16
2017-10-26T01:49:50.726Z,1017.17
2017-10-26T01:51:03.345Z,1017.19
2017-10-26T01:52:15.640Z,1017.28
2017-10-26T01:53:27.924Z,1017.25
2017-10-26T01:54:40.469Z,1017.23
2017-10-26T01:55:53.100Z,1017.2
2017-10-26T01:57:05.699Z,1017.14
2017-10-26T01:58:17.993Z,1017.13
2017-10-26T01:59:30.293Z,1017.12
2017-10-26T02:00:42.599Z,1017.08
2017-10-26T02:01:55.203Z,1017.09
2017-10-26T02:03:07.825Z,1017.08
2017-10-26T02:04:20.420Z,1017.14
2017-10-26T02:05:33.017Z,1017.15
2017-10-26T02:06:45.304Z,1017.14
2017-10-26T02:07:57.275Z,1017.15
2017-10-26T02:09:09.596Z,1017.22
2017-10-26T02:10:22.202Z,1017.25
2017-10-26T02:11:34.816Z,1017.25
2017-10-26T02:12:47.455Z,1017.26
2017-10-26T02:14:00.087Z,1017.26
2017-10-26T02:15:12.354Z,1017.27
2017-10-26T02:16:24.954Z,1017.26
2017-10-26T02:17:37.226Z,1017.26
2017-10-26T02:18:49.522Z,1017.13
2017-10-26T02:20:02.140Z,1017.15
2017-10-26T02:21:14.759Z,1017.07
2017-10-26T02:22:27.598Z,1017.05
2017-10-26T02:23:40.201Z,1017.05
2017-10-26T02:24:52.819Z,1017.03
2017-10-26T02:26:05.088Z,1017.02
2017-10-26T02:27:17.387Z,1017
2017-10-26T02:28:29.688Z,1017.04
2017-10-26T02:29:42.321Z,1017.05
2017-10-26T02:30:54.952Z,1017.02
2017-10-26T02:32:07.223Z,1017.01
2017-10-26T02:33:19.190Z,1016.92
2017-10-26T02:34:31.505Z,1016.91
2017-10-26T02:35:44.137Z,1016.92
2017-10-26T02:36:56.766Z,1016.91
2017-10-26T02:38:09.395Z,1016.92
2017-10-26T02:39:21.674Z,1016.93
2017-10-26T02:40:34.304Z,1016.91
2017-10-26T02:41:46.942Z,1016.95
2017-10-26T02:42:58.928Z,1016.97
2017-10-26T02:44:11.567Z,1016.93
2017-10-26T02:45:24.223Z,1016.94
2017-10-26T02:46:36.536Z,1016.89
2017-10-26T02:47:49.139Z,1016.93
2017-10-26T02:49:01.736Z,1016.91
2017-10-26T02:50:14.046Z,1016.89
2017-10-26T02:51:26.350Z,1016.91
2017-10-26T02:52:38.970Z,1016.89
2017-10-26T02:53:51.572Z,1016.92
2017-10-26T02:55:04.176Z,1016.92
2017-10-26T02:56:16.465Z,1016.88
2017-10-26T02:57:28.772Z,1016.93
2017-10-26T02:58:41.397Z,1016.84
2017-10-26T02:59:54.037Z,1016.84
2017-10-26T03:01:06.337Z,1016.88
2017-10-26T03:02:18.950Z,1016.86
2017-10-26T03:03:31.210Z,1016.81
2017-10-26T03:04:43.454Z,1016.86
2017-10-26T03:05:55.394Z,1016.89
2017-10-26T03:07:07.690Z,1016.93
2017-10-26T03:08:20.311Z,1016.93
2017-10-26T03:09:32.908Z,1016.99
2017-10-26T03:10:45.158Z,1016.94
2017-10-26T03:11:57.828Z,1016.97
2017-10-26T03:13:10.435Z,1017.01
2017-10-26T03:14:22.745Z,1017.01
2017-10-26T03:15:35.351Z,1016.99
2017-10-26T03:16:47.647Z,1017
2017-10-26T03:18:00.301Z,1017.01
2017-10-26T03:19:12.922Z,1017.03
2017-10-26T03:20:25.549Z,1017.02
2017-10-26T03:21:38.181Z,1016.98
2017-10-26T03:22:50.760Z,1016.98
2017-10-26T03:24:03.374Z,1016.95
2017-10-26T03:25:15.959Z,1016.85
2017-10-26T03:26:28.224Z,1016.88
2017-10-26T03:27:40.867Z,1016.86
2017-10-26T03:28:53.162Z,1016.85
2017-10-26T03:30:05.826Z,1016.86
2017-10-26T03:31:18.521Z,1016.9
2017-10-26T03:32:30.510Z,1016.86
2017-10-26T03:33:42.800Z,1016.84
2017-10-26T03:34:55.419Z,1016.83
2017-10-26T03:36:08.073Z,1016.83
2017-10-26T03:37:20.364Z,1016.83
2017-10-26T03:38:32.985Z,1016.79
2017-10-26T03:39:44.967Z,1016.79
2017-10-26T03:40:57.589Z,1016.82
2017-10-26T03:42:09.590Z,1016.83
2017-10-26T03:43:22.187Z,1016.75
2017-10-26T03:44:34.805Z,1016.75
2017-10-26T03:45:47.080Z,1016.74
2017-10-26T03:46:59.651Z,1016.74
2017-10-26T03:48:12.248Z,1016.79
2017-10-26T03:49:24.244Z,1016.78
2017-10-26T03:50:36.512Z,1016.8
2017-10-26T03:51:48.809Z,1016.81
2017-10-26T03:53:01.457Z,1016.85
2017-10-26T03:54:13.774Z,1016.82
2017-10-26T03:55:26.396Z,1016.81
2017-10-26T03:56:38.669Z,1016.78
2017-10-26T03:57:51.290Z,1016.78
2017-10-26T03:59:03.579Z,1016.87
2017-10-26T04:00:16.502Z,1016.87
2017-10-26T04:01:29.120Z,1016.96
2017-10-26T04:02:41.392Z,1016.99
2017-10-26T04:03:53.057Z,1016.97
2017-10-26T04:05:05.921Z,1016.98
2017-10-26T04:06:18.528Z,1016.91
2017-10-26T04:07:30.805Z,1016.89
2017-10-26T04:08:43.097Z,1016.84
2017-10-26T04:09:55.389Z,1016.82
2017-10-26T04:11:07.986Z,1016.74
2017-10-26T04:12:20.590Z,1016.74
2017-10-26T04:13:32.876Z,1016.74
2017-10-26T04:14:45.489Z,1016.86
2017-10-26T04:15:58.134Z,1016.99
2017-10-26T04:17:10.434Z,1017.1
2017-10-26T04:18:23.035Z,1017.1
2017-10-26T04:19:35.663Z,1017.09
2017-10-26T04:20:47.653Z,1017.15
2017-10-26T04:21:59.977Z,1017.09
2017-10-26T04:23:12.582Z,1017.03
2017-10-26T04:24:24.886Z,1016.87
2017-10-26T04:25:36.561Z,1016.82
2017-10-26T04:26:48.537Z,1016.85
2017-10-26T04:28:01.153Z,1016.92
2017-10-26T04:29:13.749Z,1016.95
2017-10-26T04:30:26.009Z,1017.05
2017-10-26T04:31:38.629Z,1017.26
2017-10-26T04:32:51.261Z,1017.39
2017-10-26T04:34:03.894Z,1017.44
2017-10-26T04:35:16.498Z,1017.4
2017-10-26T04:36:29.118Z,1017.2
2017-10-26T04:37:41.342Z,1017.05
2017-10-26T04:38:53.977Z,1017.07
2017-10-26T04:40:06.281Z,1017.12
2017-10-26T04:41:18.569Z,1017.2
2017-10-26T04:42:31.163Z,1017.18
2017-10-26T04:43:43.792Z,1017.04
2017-10-26T04:44:56.068Z,1016.86
2017-10-26T04:46:08.704Z,1016.83
2017-10-26T04:47:20.983Z,1016.91
2017-10-26T04:48:33.624Z,1017.12
2017-10-26T04:49:45.917Z,1017.31
2017-10-26T04:50:58.534Z,1017.29
2017-10-26T04:52:11.146Z,1017.23
2017-10-26T04:53:23.775Z,1017.13
2017-10-26T04:54:36.395Z,1017.11
2017-10-26T04:55:48.973Z,1017.15
2017-10-26T04:57:01.269Z,1017.17
2017-10-26T04:58:13.871Z,1017.12
2017-10-26T04:59:26.460Z,1017.02
2017-10-26T05:00:38.417Z,1016.93
2017-10-26T05:01:50.720Z,1016.95
2017-10-26T05:03:03.317Z,1016.99
2017-10-26T05:04:15.272Z,1017.06
2017-10-26T05:05:27.867Z,1017.01
2017-10-26T05:06:40.488Z,1017.01
2017-10-26T05:07:52.771Z,1016.95
2017-10-26T05:09:05.053Z,1016.89
2017-10-26T05:10:17.343Z,1016.92
2017-10-26T05:11:29.970Z,1016.94
2017-10-26T05:12:42.285Z,1016.92
2017-10-26T05:13:54.867Z,1016.93
2017-10-26T05:15:07.496Z,1017
2017-10-26T05:16:19.778Z,1016.99
2017-10-26T05:17:32.070Z,1016.97
2017-10-26T05:18:44.692Z,1016.92
2017-10-26T05:19:57.293Z,1016.88
2017-10-26T05:21:09.585Z,1016.9
2017-10-26T05:22:22.206Z,1016.86
2017-10-26T05:23:34.816Z,1016.94
2017-10-26T05:24:47.116Z,1016.96
2017-10-26T05:25:59.757Z,1016.99
2017-10-26T05:27:12.363Z,1017.01
2017-10-26T05:28:24.977Z,1016.98
2017-10-26T05:29:37.268Z,1016.87
2017-10-26T05:30:49.900Z,1016.81
2017-10-26T05:32:02.514Z,1016.83
2017-10-26T05:33:14.806Z,1016.81
2017-10-26T05:34:27.405Z,1016.88
2017-10-26T05:35:39.709Z,1017.01
2017-10-26T05:36:51.701Z,1017.04
2017-10-26T05:38:04.005Z,1016.93
2017-10-26T05:39:16.285Z,1016.87
2017-10-26T05:40:28.912Z,1016.94
2017-10-26T05:41:41.204Z,1016.95
2017-10-26T05:42:54.061Z,1016.99
2017-10-26T05:44:06.671Z,1016.99
2017-10-26T05:45:18.644Z,1016.93
2017-10-26T05:46:31.268Z,1016.94
2017-10-26T05:47:43.871Z,1016.98
2017-10-26T05:48:56.158Z,1017.04
2017-10-26T05:50:08.781Z,1017.09
2017-10-26T05:51:21.398Z,1017.03
2017-10-26T05:52:33.998Z,1017.03
2017-10-26T05:53:46.272Z,1016.95
2017-10-26T05:54:58.909Z,1016.91
2017-10-26T05:56:11.522Z,1016.98
2017-10-26T05:57:24.126Z,1016.97
2017-10-26T05:58:36.088Z,1016.91
2017-10-26T05:59:48.384Z,1016.79
2017-10-26T06:01:01.042Z,1016.69
2017-10-26T06:02:13.668Z,1016.65
2017-10-26T06:03:26.298Z,1016.61
2017-10-26T06:04:38.603Z,1016.59
2017-10-26T06:05:50.917Z,1016.56
2017-10-26T06:07:03.523Z,1016.55
2017-10-26T06:08:16.136Z,1016.51
2017-10-26T06:09:28.090Z,1016.53
2017-10-26T06:10:40.714Z,1016.55
2017-10-26T06:11:53.019Z,1016.62
2017-10-26T06:13:05.627Z,1016.58
2017-10-26T06:14:17.935Z,1016.6
2017-10-26T06:15:30.539Z,1016.75
2017-10-26T06:16:43.140Z,1016.8
2017-10-26T06:17:55.127Z,1016.8
2017-10-26T06:19:07.748Z,1016.85
2017-10-26T06:20:20.047Z,1016.93
2017-10-26T06:21:32.662Z,1016.88
2017-10-26T06:22:44.317Z,1016.94
2017-10-26T06:23:56.951Z,1016.94
2017-10-26T06:25:09.558Z,1017.04
2017-10-26T06:26:21.549Z,1017
2017-10-26T06:27:33.846Z,1017
2017-10-26T06:28:46.132Z,1017.07
2017-10-26T06:29:58.438Z,1017
2017-10-26T06:31:10.757Z,1017.01
2017-10-26T06:32:23.043Z,1017.05
2017-10-26T06:33:35.325Z,1017.09
2017-10-26T06:34:47.671Z,1017.19
2017-10-26T06:35:59.628Z,1017.24
2017-10-26T06:37:12.250Z,1017.22
2017-10-26T06:38:24.531Z,1017.27
2017-10-26T06:39:36.827Z,1017.29
2017-10-26T06:40:49.125Z,1017.3
2017-10-26T06:42:01.763Z,1017.28
2017-10-26T06:43:14.068Z,1017.28
2017-10-26T06:44:26.360Z,1017.29
2017-10-26T06:45:38.673Z,1017.38
2017-10-26T06:46:51.281Z,1017.4
2017-10-26T06:48:03.886Z,1017.4
2017-10-26T06:49:16.497Z,1017.39
2017-10-26T06:50:29.131Z,1017.39
2017-10-26T06:51:41.101Z,1017.31
2017-10-26T06:52:53.075Z,1017.35
2017-10-26T06:54:05.396Z,1017.35
2017-10-26T06:55:17.997Z,1017.43
2017-10-26T06:56:30.266Z,1017.48
2017-10-26T06:57:42.861Z,1017.57
2017-10-26T06:58:55.136Z,1017.5
2017-10-26T07:00:07.730Z,1017.47
2017-10-26T07:01:19.999Z,1017.44
2017-10-26T07:02:32.308Z,1017.51
2017-10-26T07:03:44.931Z,1017.7
2017-10-26T07:04:57.605Z,1017.74
2017-10-26T07:06:10.226Z,1017.65
2017-10-26T07:07:22.530Z,1017.6
2017-10-26T07:08:35.128Z,1017.55
2017-10-26T07:09:47.719Z,1017.4
2017-10-26T07:11:00.012Z,1017.41
2017-10-26T07:12:12.609Z,1017.3
2017-10-26T07:13:25.205Z,1017.29
2017-10-26T07:14:37.801Z,1017.3
2017-10-26T07:15:49.749Z,1017.35
2017-10-26T07:17:02.388Z,1017.34
2017-10-26T07:18:14.705Z,1017.24
2017-10-26T07:19:27.029Z,1017.13
2017-10-26T07:20:39.251Z,1017.04
2017-10-26T07:21:51.514Z,1017
2017-10-26T07:23:04.142Z,1016.94
2017-10-26T07:24:16.742Z,1016.96
2017-10-26T07:25:29.032Z,1017.08
2017-10-26T07:26:40.997Z,1017.03
2017-10-26T07:27:53.297Z,1017.1
2017-10-26T07:29:05.901Z,1017.05
2017-10-26T07:30:18.191Z,1017.15
2017-10-26T07:31:30.171Z,1017.24
2017-10-26T07:32:42.781Z,1017.27
2017-10-26T07:33:55.052Z,1017.26
2017-10-26T07:35:07.007Z,1017.18
2017-10-26T07:36:19.620Z,1017.04
2017-10-26T07:37:32.217Z,1016.94
2017-10-26T07:38:44.189Z,1017.13
2017-10-26T07:39:56.812Z,1017.33
2017-10-26T07:41:09.119Z,1017.31
2017-10-26T07:42:21.748Z,1017.28
2017-10-26T07:43:33.699Z,1017.24
2017-10-26T07:44:46.003Z,1017.25
2017-10-26T07:45:58.309Z,1017.17
2017-10-26T07:47:10.910Z,1017.11
2017-10-26T07:48:22.899Z,1017.01
2017-10-26T07:49:35.516Z,1017.01
2017-10-26T07:50:48.147Z,1017.18
2017-10-26T07:52:00.457Z,1017.21
2017-10-26T07:53:13.083Z,1017.11
2017-10-26T07:54:25.396Z,1017.16
2017-10-26T07:55:38.018Z,1017.15
2017-10-26T07:56:50.622Z,1017.04
2017-10-26T07:58:02.913Z,1017.01
2017-10-26T07:59:14.588Z,1017.14
2017-10-26T08:00:27.214Z,1017.31
2017-10-26T08:01:39.833Z,1017.39
2017-10-26T08:02:52.501Z,1017.33
2017-10-26T08:04:04.772Z,1017.28
2017-10-26T08:05:16.436Z,1017.2
2017-10-26T08:06:28.440Z,1017.16
2017-10-26T08:07:41.058Z,1017.18
2017-10-26T08:08:53.657Z,1017.18
2017-10-26T08:10:05.973Z,1017.03
2017-10-26T08:11:17.935Z,1016.95
2017-10-26T08:12:29.911Z,1016.81
2017-10-26T08:13:42.537Z,1016.79
2017-10-26T08:14:54.825Z,1016.85
2017-10-26T08:16:06.762Z,1016.73
2017-10-26T08:17:19.446Z,1016.79
2017-10-26T08:18:32.063Z,1016.8
2017-10-26T08:19:44.695Z,1016.79
2017-10-26T08:20:56.999Z,1016.72
2017-10-26T08:22:09.299Z,1016.74
2017-10-26T08:23:21.606Z,1016.7
2017-10-26T08:24:33.265Z,1016.67
2017-10-26T08:25:45.881Z,1016.61
2017-10-26T08:26:58.186Z,1016.64
2017-10-26T08:28:10.478Z,1016.71
2017-10-26T08:29:22.456Z,1016.68
2017-10-26T08:30:34.783Z,1016.75
2017-10-26T08:31:47.073Z,1016.79
2017-10-26T08:32:59.363Z,1016.82
2017-10-26T08:34:11.965Z,1016.85
2017-10-26T08:35:23.948Z,1016.89
2017-10-26T08:36:36.236Z,1016.91
2017-10-26T08:37:48.868Z,1016.87
2017-10-26T08:39:01.469Z,1016.93
2017-10-26T08:40:13.789Z,1016.91
2017-10-26T08:41:26.436Z,1016.99
2017-10-26T08:42:39.055Z,1016.97
2017-10-26T08:43:51.678Z,1016.87
2017-10-26T08:45:04.296Z,1016.8
2017-10-26T08:46:16.273Z,1016.82
2017-10-26T08:47:28.246Z,1016.79
2017-10-26T08:48:40.578Z,1016.77
2017-10-26T08:49:53.182Z,1016.73
2017-10-26T08:51:05.459Z,1016.81
2017-10-26T08:52:18.073Z,1016.97
2017-10-26T08:53:30.696Z,1016.99
2017-10-26T08:54:42.962Z,1016.95
2017-10-26T08:55:55.574Z,1017.05
2017-10-26T08:57:08.209Z,1017.13
2017-10-26T08:58:20.519Z,1017.11
2017-10-26T08:59:32.776Z,1017.06
2017-10-26T09:00:45.388Z,1017.05
2017-10-26T09:01:57.990Z,1017.12
2017-10-26T09:03:10.291Z,1017.17
2017-10-26T09:04:22.571Z,1017.18
2017-10-26T09:05:34.868Z,1017.19
2017-10-26T09:06:47.492Z,1017.25
2017-10-26T09:07:59.766Z,1017.2
2017-10-26T09:09:12.386Z,1017.18
2017-10-26T09:10:25.025Z,1017.12
2017-10-26T09:11:37.347Z,1017.08
2017-10-26T09:12:49.977Z,1017.02
2017-10-26T09:14:02.591Z,1016.92
2017-10-26T09:15:14.890Z,1016.93
2017-10-26T09:16:27.188Z,1017.02
2017-10-26T09:17:39.833Z,1017.06
2017-10-26T09:18:52.150Z,1017.04
2017-10-26T09:20:04.753Z,1017.1
2017-10-26T09:21:17.366Z,1017.14
2017-10-26T09:22:29.663Z,1017.1
2017-10-26T09:23:42.258Z,1017.06
2017-10-26T09:24:54.930Z,1017.02
2017-10-26T09:26:07.227Z,1016.99
2017-10-26T09:27:19.214Z,1017
2017-10-26T09:28:31.814Z,1016.98
2017-10-26T09:29:44.410Z,1017.01
2017-10-26T09:30:56.708Z,1016.9
2017-10-26T09:32:08.997Z,1016.93
2017-10-26T09:33:21.600Z,1016.95
2017-10-26T09:34:33.599Z,1016.99
2017-10-26T09:35:45.887Z,1016.98
2017-10-26T09:36:58.486Z,1016.98
2017-10-26T09:38:10.450Z,1016.9
2017-10-26T09:39:22.821Z,1016.93
2017-10-26T09:40:35.424Z,1016.96
2017-10-26T09:41:48.046Z,1016.92
2017-10-26T09:43:00.630Z,1016.87
2017-10-26T09:44:13.265Z,1016.84
2017-10-26T09:45:25.557Z,1016.8
2017-10-26T09:46:37.879Z,1016.78
2017-10-26T09:47:50.522Z,1016.81
2017-10-26T09:49:02.822Z,1016.77
2017-10-26T09:50:15.114Z,1016.77
2017-10-26T09:51:27.758Z,1016.81
2017-10-26T09:52:40.053Z,1016.8
2017-10-26T09:53:52.668Z,1016.86
2017-10-26T09:55:05.285Z,1016.95
2017-10-26T09:56:16.938Z,1016.9
2017-10-26T09:57:29.551Z,1016.89
2017-10-26T09:58:41.525Z,1016.98
2017-10-26T09:59:54.135Z,1017.01
2017-10-26T10:01:06.777Z,1017.06
2017-10-26T10:02:19.395Z,1017.07
2017-10-26T10:03:31.680Z,1017.07
2017-10-26T10:04:44.311Z,1017.09
2017-10-26T10:05:56.326Z,1017.04
2017-10-26T10:07:08.299Z,1017.07
2017-10-26T10:08:20.592Z,1017
2017-10-26T10:09:32.885Z,1017.01
2017-10-26T10:10:44.863Z,1017.02
2017-10-26T10:11:57.482Z,1017.03
2017-10-26T10:13:10.084Z,1016.95
2017-10-26T10:14:22.693Z,1016.9
2017-10-26T10:15:35.312Z,1016.91
2017-10-26T10:16:47.924Z,1016.84
2017-10-26T10:18:00.556Z,1016.81
2017-10-26T10:19:13.172Z,1016.81
2017-10-26T10:20:25.472Z,1016.85
2017-10-26T10:21:38.122Z,1016.8
2017-10-26T10:22:50.770Z,1016.8
2017-10-26T10:24:03.381Z,1016.71
2017-10-26T10:25:16.013Z,1016.67
2017-10-26T10:26:28.325Z,1016.68
2017-10-26T10:27:40.951Z,1016.72
2017-10-26T10:28:53.249Z,1016.76
2017-10-26T10:30:05.846Z,1016.74
2017-10-26T10:31:18.483Z,1016.74
2017-10-26T10:32:31.111Z,1016.69
2017-10-26T10:33:43.120Z,1016.68
2017-10-26T10:34:55.450Z,1016.69
2017-10-26T10:36:07.430Z,1016.66
2017-10-26T10:37:20.042Z,1016.61
2017-10-26T10:38:32.637Z,1016.63
2017-10-26T10:39:44.935Z,1016.61
2017-10-26T10:40:57.211Z,1016.64
2017-10-26T10:42:09.848Z,1016.63
2017-10-26T10:43:22.471Z,1016.63
2017-10-26T10:44:34.764Z,1016.54
2017-10-26T10:45:47.366Z,1016.48
2017-10-26T10:46:59.348Z,1016.52
2017-10-26T10:48:11.654Z,1016.55
2017-10-26T10:49:24.275Z,1016.53
2017-10-26T10:50:36.568Z,1016.5
2017-10-26T10:51:48.855Z,1016.45
2017-10-26T10:53:01.506Z,1016.5
2017-10-26T10:54:13.846Z,1016.51
2017-10-26T10:55:26.478Z,1016.43
2017-10-26T10:56:39.099Z,1016.47
2017-10-26T10:57:52.536Z,1016.46
2017-10-26T10:59:05.154Z,1016.47
2017-10-26T11:00:17.750Z,1016.41
2017-10-26T11:01:30.070Z,1016.38
2017-10-26T11:02:42.391Z,1016.39
2017-10-26T11:03:54.998Z,1016.42
2017-10-26T11:05:07.293Z,1016.41
2017-10-26T11:06:19.939Z,1016.46
2017-10-26T11:07:31.930Z,1016.34
2017-10-26T11:08:44.544Z,1016.33
2017-10-26T11:09:56.518Z,1016.32
2017-10-26T11:11:09.143Z,1016.25
2017-10-26T11:12:21.759Z,1016.22
2017-10-26T11:13:34.389Z,1016.18
2017-10-26T11:14:47.029Z,1016.22
2017-10-26T11:15:59.626Z,1016.2
2017-10-26T11:17:11.624Z,1016.2
2017-10-26T11:18:24.239Z,1016.22
2017-10-26T11:19:37.135Z,1016.27
2017-10-26T11:20:49.754Z,1016.22
2017-10-26T11:22:02.045Z,1016.22
2017-10-26T11:23:14.345Z,1016.3
2017-10-26T11:24:26.949Z,1016.21
2017-10-26T11:25:39.219Z,1016.17
2017-10-26T11:26:51.195Z,1016.09
2017-10-26T11:28:03.487Z,1016.11
2017-10-26T11:29:15.145Z,1016.1
2017-10-26T11:30:27.747Z,1016.05
2017-10-26T11:31:40.072Z,1016.09
2017-10-26T11:32:52.693Z,1016.12
2017-10-26T11:34:04.692Z,1016.09
2017-10-26T11:35:16.985Z,1016.07
2017-10-26T11:36:29.585Z,1016.08
2017-10-26T11:37:42.202Z,1016.08
2017-10-26T11:38:54.838Z,1016.04
2017-10-26T11:40:07.489Z,1015.99
2017-10-26T11:41:19.805Z,1015.96
2017-10-26T11:42:32.435Z,1015.95
2017-10-26T11:43:44.396Z,1015.94
2017-10-26T11:44:56.672Z,1015.94
2017-10-26T11:46:08.980Z,1015.96
2017-10-26T11:47:21.314Z,1015.91
2017-10-26T11:48:33.608Z,1015.89
2017-10-26T11:49:45.932Z,1015.86
2017-10-26T11:50:58.266Z,1015.86
2017-10-26T11:52:10.565Z,1015.81
2017-10-26T11:53:22.216Z,1015.77
2017-10-26T11:54:34.842Z,1015.73
2017-10-26T11:55:47.449Z,1015.72
2017-10-26T11:56:59.781Z,1015.79
2017-10-26T11:58:12.068Z,1015.82
2017-10-26T11:59:24.071Z,1015.75
2017-10-26T12:00:36.324Z,1015.67
2017-10-26T12:01:48.650Z,1015.59
2017-10-26T12:03:00.938Z,1015.57
2017-10-26T12:04:12.918Z,1015.67
2017-10-26T12:05:25.533Z,1015.6
2017-10-26T12:06:37.848Z,1015.62
2017-10-26T12:07:50.467Z,1015.61
2017-10-26T12:09:02.434Z,1015.57
2017-10-26T12:10:15.059Z,1015.64
2017-10-26T12:11:27.371Z,1015.55
2017-10-26T12:12:39.341Z,1015.62
2017-10-26T12:13:51.309Z,1015.63
2017-10-26T12:15:03.662Z,1015.58
2017-10-26T12:16:15.978Z,1015.63
2017-10-26T12:17:28.596Z,1015.58
2017-10-26T12:18:40.908Z,1015.52
2017-10-26T12:19:53.592Z,1015.56
2017-10-26T12:21:05.873Z,1015.51
2017-10-26T12:22:18.186Z,1015.48
2017-10-26T12:23:30.456Z,1015.46
2017-10-26T12:24:42.758Z,1015.48
2017-10-26T12:25:55.391Z,1015.45
2017-10-26T12:27:07.698Z,1015.46
2017-10-26T12:28:20.015Z,1015.47
2017-10-26T12:29:32.313Z,1015.43
2017-10-26T12:30:44.906Z,1015.44
2017-10-26T12:31:57.175Z,1015.4
2017-10-26T12:33:09.818Z,1015.41
2017-10-26T12:34:21.447Z,1015.4
2017-10-26T12:35:33.709Z,1015.38
2017-10-26T12:36:45.687Z,1015.35
2017-10-26T12:37:58.009Z,1015.35
2017-10-26T12:39:10.301Z,1015.29
2017-10-26T12:40:22.593Z,1015.33
2017-10-26T12:41:35.245Z,1015.31
2017-10-26T12:42:47.891Z,1015.23
2017-10-26T12:44:00.557Z,1015.22
2017-10-26T12:45:13.196Z,1015.23
2017-10-26T12:46:25.782Z,1015.24
2017-10-26T12:47:38.379Z,1015.18
2017-10-26T12:48:50.707Z,1015.17
2017-10-26T12:50:03.014Z,1015.14
2017-10-26T12:51:15.277Z,1015.14
2017-10-26T12:52:27.236Z,1015.07
2017-10-26T12:53:39.220Z,1015.04
2017-10-26T12:54:51.868Z,1015
2017-10-26T12:56:04.460Z,1015.03
2017-10-26T12:57:16.680Z,1014.96
2017-10-26T12:58:29.001Z,1014.97
2017-10-26T12:59:40.684Z,1014.93
2017-10-26T13:00:53.005Z,1014.83
2017-10-26T13:02:05.323Z,1014.85
2017-10-26T13:03:17.268Z,1014.8
2017-10-26T13:04:29.568Z,1014.77
2017-10-26T13:05:41.872Z,1014.75
2017-10-26T13:06:54.172Z,1014.71
2017-10-26T13:08:06.446Z,1014.62
2017-10-26T13:09:18.745Z,1014.63
2017-10-26T13:10:31.405Z,1014.67
2017-10-26T13:11:44.016Z,1014.75
2017-10-26T13:12:56.658Z,1014.71
2017-10-26T13:14:09.279Z,1014.74
2017-10-26T13:15:20.945Z,1014.78
2017-10-26T13:16:33.236Z,1014.74
2017-10-26T13:17:44.903Z,1014.76
2017-10-26T13:18:57.439Z,1014.7
2017-10-26T13:20:09.732Z,1014.73
2017-10-26T13:21:22.354Z,1014.69
2017-10-26T13:22:34.664Z,1014.73
2017-10-26T13:23:46.634Z,1014.66
2017-10-26T13:24:58.604Z,1014.74
2017-10-26T13:26:11.230Z,1014.8
2017-10-26T13:27:23.882Z,1014.86
2017-10-26T13:28:36.503Z,1014.9
2017-10-26T13:29:49.146Z,1014.98
2017-10-26T13:31:01.467Z,1014.93
2017-10-26T13:32:13.480Z,1014.87
2017-10-26T13:33:26.101Z,1014.89
2017-10-26T13:34:38.396Z,1014.82
2017-10-26T13:35:50.697Z,1014.78
2017-10-26T13:37:03.293Z,1014.75
2017-10-26T13:38:15.947Z,1014.69
2017-10-26T13:39:28.279Z,1014.74
2017-10-26T13:40:40.607Z,1014.74
2017-10-26T13:41:53.232Z,1014.74
2017-10-26T13:43:05.501Z,1014.74
2017-10-26T13:44:17.465Z,1014.72
2017-10-26T13:45:29.740Z,1014.74
2017-10-26T13:46:42.358Z,1014.73
2017-10-26T13:47:54.952Z,1014.77
2017-10-26T13:49:07.593Z,1014.74
2017-10-26T13:50:19.896Z,1014.73
2017-10-26T13:51:32.187Z,1014.73
2017-10-26T13:52:44.490Z,1014.68
2017-10-26T13:53:56.802Z,1014.61
2017-10-26T13:55:09.081Z,1014.64
2017-10-26T13:56:21.393Z,1014.64
2017-10-26T13:57:34.021Z,1014.67
2017-10-26T13:58:46.623Z,1014.69
2017-10-26T13:59:59.229Z,1014.68
2017-10-26T14:01:11.529Z,1014.73
2017-10-26T14:02:24.118Z,1014.73
2017-10-26T14:03:36.751Z,1014.75
2017-10-26T14:04:49.038Z,1014.75
2017-10-26T14:06:01.654Z,1014.72
2017-10-26T14:07:14.261Z,1014.74
2017-10-26T14:08:26.239Z,1014.75
2017-10-26T14:09:38.867Z,1014.75
2017-10-26T14:10:51.492Z,1014.76
2017-10-26T14:12:03.148Z,1014.73
2017-10-26T14:13:15.114Z,1014.71
2017-10-26T14:14:27.749Z,1014.7
2017-10-26T14:15:40.354Z,1014.66
2017-10-26T14:16:52.648Z,1014.73
2017-10-26T14:18:05.278Z,1014.77
2017-10-26T14:19:17.885Z,1014.69
2017-10-26T14:20:30.485Z,1014.73
2017-10-26T14:21:42.786Z,1014.74
2017-10-26T14:22:55.401Z,1014.68
2017-10-26T14:24:08.000Z,1014.76
2017-10-26T14:25:20.599Z,1014.8
2017-10-26T14:26:32.897Z,1014.79
2017-10-26T14:27:45.203Z,1014.74
2017-10-26T14:28:57.500Z,1014.78
2017-10-26T14:30:09.793Z,1014.74
2017-10-26T14:31:22.425Z,1014.79
2017-10-26T14:32:35.046Z,1014.79
2017-10-26T14:33:47.664Z,1014.75
2017-10-26T14:34:59.961Z,1014.76
2017-10-26T14:36:12.279Z,1014.71
2017-10-26T14:37:24.578Z,1014.72
2017-10-26T14:38:37.198Z,1014.72
2017-10-26T14:39:49.836Z,1014.66